sensor_id;sensor_type;location;lat;lon;timestamp;P1;durP1;ratioP1;P2;durP2;ratioP2
2320;SDS011;15376;48.540;9.268;2023-12-22T00:01:52;1.83;;;1.20;;
2320;SDS011;15376;48.540;9.268;2023-12-22T00:04:17;2.83;;;1.50;;
2320;SDS011;15376;48.540;9.268;2023-12-22T00:06:42;1.13;;;1.03;;
2320;SDS011;15376;48.540;9.268;2023-12-22T00:09:08;4.50;;;1.60;;
2320;SDS011;15376;48.540;9.268;2023-12-22T00:11:33;1.13;;;1.03;;
2320;SDS011;15376;48.540;9.268;2023-12-22T00:13:59;5.27;;;1.33;;
2320;SDS011;15376;48.540;9.268;2023-12-22T00:16:24;2.50;;;2.30;;
2320;SDS011;15376;48.540;9.268;2023-12-22T00:18:49;1.60;;;1.50;;
2320;SDS011;15376;48.540;9.268;2023-12-22T00:21:15;3.73;;;1.40;;
2320;SDS011;15376;48.540;9.268;2023-12-22T00:23:40;1.53;;;1.40;;
2320;SDS011;15376;48.540;9.268;2023-12-22T00:26:05;2.10;;;1.77;;
2320;SDS011;15376;48.540;9.268;2023-12-22T00:28:31;5.70;;;1.83;;
2320;SDS011;15376;48.540;9.268;2023-12-22T00:30:59;2.60;;;2.20;;
2320;SDS011;15376;48.540;9.268;2023-12-22T00:33:24;4.20;;;1.57;;
2320;SDS011;15376;48.540;9.268;2023-12-22T00:35:50;4.33;;;1.50;;
2320;SDS011;15376;48.540;9.268;2023-12-22T00:38:16;2.57;;;2.20;;
2320;SDS011;15376;48.540;9.268;2023-12-22T00:40:41;5.80;;;2.47;;
2320;SDS011;15376;48.540;9.268;2023-12-22T00:43:07;4.10;;;2.80;;
2320;SDS011;15376;48.540;9.268;2023-12-22T00:45:32;5.23;;;2.07;;
2320;SDS011;15376;48.540;9.268;2023-12-22T00:47:57;3.97;;;1.90;;
2320;SDS011;15376;48.540;9.268;2023-12-22T00:50:23;4.20;;;2.03;;
2320;SDS011;15376;48.540;9.268;2023-12-22T00:52:48;1.90;;;1.50;;
2320;SDS011;15376;48.540;9.268;2023-12-22T00:55:13;2.63;;;1.70;;
2320;SDS011;15376;48.540;9.268;2023-12-22T00:57:39;4.70;;;1.90;;
2320;SDS011;15376;48.540;9.268;2023-12-22T01:00:04;3.30;;;1.53;;
2320;SDS011;15376;48.540;9.268;2023-12-22T01:02:34;1.67;;;1.57;;
2320;SDS011;15376;48.540;9.268;2023-12-22T01:04:59;3.40;;;2.13;;
2320;SDS011;15376;48.540;9.268;2023-12-22T01:07:24;2.77;;;1.43;;
2320;SDS011;15376;48.540;9.268;2023-12-22T01:09:50;5.57;;;2.30;;
2320;SDS011;15376;48.540;9.268;2023-12-22T01:12:16;1.70;;;1.60;;
2320;SDS011;15376;48.540;9.268;2023-12-22T01:14:41;4.53;;;2.47;;
2320;SDS011;15376;48.540;9.268;2023-12-22T01:17:10;5.53;;;1.90;;
2320;SDS011;15376;48.540;9.268;2023-12-22T01:19:35;2.93;;;2.00;;
2320;SDS011;15376;48.540;9.268;2023-12-22T01:22:00;5.73;;;1.73;;
2320;SDS011;15376;48.540;9.268;2023-12-22T01:24:26;4.53;;;1.50;;
2320;SDS011;15376;48.540;9.268;2023-12-22T01:26:51;3.60;;;2.00;;
2320;SDS011;15376;48.540;9.268;2023-12-22T01:29:16;8.20;;;2.07;;
2320;SDS011;15376;48.540;9.268;2023-12-22T01:31:42;2.50;;;1.80;;
2320;SDS011;15376;48.540;9.268;2023-12-22T01:34:07;2.03;;;1.83;;
2320;SDS011;15376;48.540;9.268;2023-12-22T01:36:33;3.47;;;1.20;;
2320;SDS011;15376;48.540;9.268;2023-12-22T01:38:59;1.77;;;1.50;;
2320;SDS011;15376;48.540;9.268;2023-12-22T01:41:24;3.47;;;1.57;;
2320;SDS011;15376;48.540;9.268;2023-12-22T01:43:50;1.30;;;1.20;;
2320;SDS011;15376;48.540;9.268;2023-12-22T01:46:15;1.13;;;1.03;;
2320;SDS011;15376;48.540;9.268;2023-12-22T01:48:41;2.00;;;1.13;;
2320;SDS011;15376;48.540;9.268;2023-12-22T01:51:07;1.10;;;0.90;;
2320;SDS011;15376;48.540;9.268;2023-12-22T01:53:32;1.40;;;0.83;;
2320;SDS011;15376;48.540;9.268;2023-12-22T01:55:59;1.73;;;0.90;;
2320;SDS011;15376;48.540;9.268;2023-12-22T01:58:25;1.10;;;1.00;;
2320;SDS011;15376;48.540;9.268;2023-12-22T02:00:52;1.37;;;0.80;;
2320;SDS011;15376;48.540;9.268;2023-12-22T02:03:18;1.10;;;1.00;;
2320;SDS011;15376;48.540;9.268;2023-12-22T02:05:44;1.20;;;0.90;;
2320;SDS011;15376;48.540;9.268;2023-12-22T02:08:11;2.57;;;1.00;;
2320;SDS011;15376;48.540;9.268;2023-12-22T02:10:36;0.80;;;0.77;;
2320;SDS011;15376;48.540;9.268;2023-12-22T02:13:02;1.30;;;1.00;;
2320;SDS011;15376;48.540;9.268;2023-12-22T02:15:29;2.07;;;0.80;;
2320;SDS011;15376;48.540;9.268;2023-12-22T02:20:32;1.20;;;0.80;;
2320;SDS011;15376;48.540;9.268;2023-12-22T02:22:57;1.13;;;0.93;;
2320;SDS011;15376;48.540;9.268;2023-12-22T02:25:22;1.10;;;1.00;;
2320;SDS011;15376;48.540;9.268;2023-12-22T02:27:48;3.97;;;1.07;;
2320;SDS011;15376;48.540;9.268;2023-12-22T02:30:19;1.20;;;0.90;;
2320;SDS011;15376;48.540;9.268;2023-12-22T02:32:47;1.43;;;0.93;;
2320;SDS011;15376;48.540;9.268;2023-12-22T02:35:16;1.70;;;1.10;;
2320;SDS011;15376;48.540;9.268;2023-12-22T02:37:45;1.17;;;1.07;;
2320;SDS011;15376;48.540;9.268;2023-12-22T02:40:12;1.10;;;0.90;;
2320;SDS011;15376;48.540;9.268;2023-12-22T02:42:37;1.30;;;1.20;;
2320;SDS011;15376;48.540;9.268;2023-12-22T02:45:03;1.93;;;1.40;;
2320;SDS011;15376;48.540;9.268;2023-12-22T02:47:30;3.47;;;1.20;;
2320;SDS011;15376;48.540;9.268;2023-12-22T02:49:57;3.13;;;1.40;;
2320;SDS011;15376;48.540;9.268;2023-12-22T02:52:22;2.23;;;1.30;;
2320;SDS011;15376;48.540;9.268;2023-12-22T02:54:48;2.13;;;1.83;;
2320;SDS011;15376;48.540;9.268;2023-12-22T02:57:13;2.00;;;1.30;;
2320;SDS011;15376;48.540;9.268;2023-12-22T02:59:38;4.53;;;1.70;;
2320;SDS011;15376;48.540;9.268;2023-12-22T03:02:04;3.10;;;1.60;;
2320;SDS011;15376;48.540;9.268;2023-12-22T03:04:29;3.33;;;1.60;;
2320;SDS011;15376;48.540;9.268;2023-12-22T03:06:55;2.23;;;1.77;;
2320;SDS011;15376;48.540;9.268;2023-12-22T03:09:20;1.63;;;1.40;;
2320;SDS011;15376;48.540;9.268;2023-12-22T03:11:46;3.63;;;2.10;;
2320;SDS011;15376;48.540;9.268;2023-12-22T03:14:12;3.57;;;1.83;;
2320;SDS011;15376;48.540;9.268;2023-12-22T03:16:37;3.10;;;1.93;;
2320;SDS011;15376;48.540;9.268;2023-12-22T03:19:03;4.50;;;1.53;;
2320;SDS011;15376;48.540;9.268;2023-12-22T03:21:28;5.17;;;1.60;;
2320;SDS011;15376;48.540;9.268;2023-12-22T03:23:53;2.80;;;1.27;;
2320;SDS011;15376;48.540;9.268;2023-12-22T03:26:19;3.50;;;1.30;;
2320;SDS011;15376;48.540;9.268;2023-12-22T03:28:44;2.30;;;1.30;;
2320;SDS011;15376;48.540;9.268;2023-12-22T03:31:09;1.93;;;1.10;;
2320;SDS011;15376;48.540;9.268;2023-12-22T03:33:35;1.20;;;1.00;;
2320;SDS011;15376;48.540;9.268;2023-12-22T03:36:00;4.80;;;1.10;;
2320;SDS011;15376;48.540;9.268;2023-12-22T03:38:25;1.20;;;1.10;;
2320;SDS011;15376;48.540;9.268;2023-12-22T03:40:50;2.50;;;1.10;;
2320;SDS011;15376;48.540;9.268;2023-12-22T03:43:16;3.13;;;1.37;;
2320;SDS011;15376;48.540;9.268;2023-12-22T03:45:41;1.10;;;1.00;;
2320;SDS011;15376;48.540;9.268;2023-12-22T03:48:06;4.30;;;1.43;;
2320;SDS011;15376;48.540;9.268;2023-12-22T03:50:32;4.70;;;1.70;;
2320;SDS011;15376;48.540;9.268;2023-12-22T03:52:57;3.47;;;1.63;;
2320;SDS011;15376;48.540;9.268;2023-12-22T03:55:22;2.83;;;1.10;;
2320;SDS011;15376;48.540;9.268;2023-12-22T03:57:48;2.60;;;1.67;;
2320;SDS011;15376;48.540;9.268;2023-12-22T04:00:13;2.90;;;1.23;;
2320;SDS011;15376;48.540;9.268;2023-12-22T04:02:41;1.30;;;1.10;;
2320;SDS011;15376;48.540;9.268;2023-12-22T04:05:06;1.20;;;1.10;;
2320;SDS011;15376;48.540;9.268;2023-12-22T04:07:32;1.37;;;1.20;;
2320;SDS011;15376;48.540;9.268;2023-12-22T04:09:57;1.47;;;1.37;;
2320;SDS011;15376;48.540;9.268;2023-12-22T04:12:23;1.30;;;1.10;;
2320;SDS011;15376;48.540;9.268;2023-12-22T04:14:48;1.50;;;1.03;;
2320;SDS011;15376;48.540;9.268;2023-12-22T04:17:13;2.00;;;1.10;;
2320;SDS011;15376;48.540;9.268;2023-12-22T04:19:38;2.10;;;1.27;;
2320;SDS011;15376;48.540;9.268;2023-12-22T04:22:04;4.73;;;1.93;;
2320;SDS011;15376;48.540;9.268;2023-12-22T04:24:29;2.13;;;1.40;;
2320;SDS011;15376;48.540;9.268;2023-12-22T04:26:54;1.63;;;0.90;;
2320;SDS011;15376;48.540;9.268;2023-12-22T04:29:20;1.40;;;1.10;;
2320;SDS011;15376;48.540;9.268;2023-12-22T04:31:45;1.77;;;1.20;;
2320;SDS011;15376;48.540;9.268;2023-12-22T04:34:12;1.40;;;1.30;;
2320;SDS011;15376;48.540;9.268;2023-12-22T04:36:39;4.33;;;1.93;;
2320;SDS011;15376;48.540;9.268;2023-12-22T04:39:04;6.00;;;1.47;;
2320;SDS011;15376;48.540;9.268;2023-12-22T04:41:30;2.70;;;1.90;;
2320;SDS011;15376;48.540;9.268;2023-12-22T04:43:55;2.97;;;1.33;;
2320;SDS011;15376;48.540;9.268;2023-12-22T04:46:20;7.30;;;1.97;;
2320;SDS011;15376;48.540;9.268;2023-12-22T04:48:46;4.40;;;1.80;;
2320;SDS011;15376;48.540;9.268;2023-12-22T04:51:11;4.97;;;2.27;;
2320;SDS011;15376;48.540;9.268;2023-12-22T04:53:37;4.30;;;1.47;;
2320;SDS011;15376;48.540;9.268;2023-12-22T04:56:02;4.43;;;2.00;;
2320;SDS011;15376;48.540;9.268;2023-12-22T04:58:28;6.30;;;2.03;;
2320;SDS011;15376;48.540;9.268;2023-12-22T05:00:54;1.50;;;1.40;;
2320;SDS011;15376;48.540;9.268;2023-12-22T05:03:19;6.10;;;2.37;;
2320;SDS011;15376;48.540;9.268;2023-12-22T05:05:44;2.70;;;1.63;;
2320;SDS011;15376;48.540;9.268;2023-12-22T05:08:10;5.20;;;2.17;;
2320;SDS011;15376;48.540;9.268;2023-12-22T05:10:35;4.63;;;1.97;;
2320;SDS011;15376;48.540;9.268;2023-12-22T05:13:00;3.47;;;2.37;;
2320;SDS011;15376;48.540;9.268;2023-12-22T05:15:26;8.20;;;2.10;;
2320;SDS011;15376;48.540;9.268;2023-12-22T05:17:52;2.43;;;1.30;;
2320;SDS011;15376;48.540;9.268;2023-12-22T05:20:17;5.37;;;2.10;;
2320;SDS011;15376;48.540;9.268;2023-12-22T05:22:43;5.63;;;1.90;;
2320;SDS011;15376;48.540;9.268;2023-12-22T05:25:08;4.83;;;1.80;;
2320;SDS011;15376;48.540;9.268;2023-12-22T05:27:35;4.33;;;2.30;;
2320;SDS011;15376;48.540;9.268;2023-12-22T05:30:00;7.73;;;2.00;;
2320;SDS011;15376;48.540;9.268;2023-12-22T05:32:28;5.50;;;1.73;;
2320;SDS011;15376;48.540;9.268;2023-12-22T05:34:54;9.50;;;2.53;;
2320;SDS011;15376;48.540;9.268;2023-12-22T05:37:19;5.43;;;2.40;;
2320;SDS011;15376;48.540;9.268;2023-12-22T05:39:44;4.00;;;2.23;;
2320;SDS011;15376;48.540;9.268;2023-12-22T05:42:10;5.07;;;1.67;;
2320;SDS011;15376;48.540;9.268;2023-12-22T05:44:36;8.60;;;3.17;;
2320;SDS011;15376;48.540;9.268;2023-12-22T05:47:03;9.13;;;2.00;;
2320;SDS011;15376;48.540;9.268;2023-12-22T05:49:29;7.27;;;2.30;;
2320;SDS011;15376;48.540;9.268;2023-12-22T05:51:54;5.53;;;2.00;;
2320;SDS011;15376;48.540;9.268;2023-12-22T05:54:20;5.33;;;2.63;;
2320;SDS011;15376;48.540;9.268;2023-12-22T05:56:46;6.30;;;2.50;;
2320;SDS011;15376;48.540;9.268;2023-12-22T05:59:11;2.93;;;2.10;;
2320;SDS011;15376;48.540;9.268;2023-12-22T06:01:37;7.00;;;2.80;;
2320;SDS011;15376;48.540;9.268;2023-12-22T06:04:02;5.77;;;2.40;;
2320;SDS011;15376;48.540;9.268;2023-12-22T06:06:28;5.50;;;2.03;;
2320;SDS011;15376;48.540;9.268;2023-12-22T06:08:54;3.70;;;2.50;;
2320;SDS011;15376;48.540;9.268;2023-12-22T06:11:20;7.77;;;3.60;;
2320;SDS011;15376;48.540;9.268;2023-12-22T06:13:45;7.40;;;2.87;;
2320;SDS011;15376;48.540;9.268;2023-12-22T06:16:11;6.30;;;3.43;;
2320;SDS011;15376;48.540;9.268;2023-12-22T06:18:40;6.90;;;2.50;;
2320;SDS011;15376;48.540;9.268;2023-12-22T06:21:06;4.30;;;2.37;;
2320;SDS011;15376;48.540;9.268;2023-12-22T06:23:31;7.07;;;2.37;;
2320;SDS011;15376;48.540;9.268;2023-12-22T06:25:57;4.80;;;3.60;;
2320;SDS011;15376;48.540;9.268;2023-12-22T06:28:22;6.77;;;2.23;;
2320;SDS011;15376;48.540;9.268;2023-12-22T06:30:47;5.73;;;2.63;;
2320;SDS011;15376;48.540;9.268;2023-12-22T06:33:13;4.40;;;2.20;;
2320;SDS011;15376;48.540;9.268;2023-12-22T06:35:38;8.90;;;3.47;;
2320;SDS011;15376;48.540;9.268;2023-12-22T06:38:06;10.90;;;3.07;;
2320;SDS011;15376;48.540;9.268;2023-12-22T06:40:31;6.90;;;2.67;;
2320;SDS011;15376;48.540;9.268;2023-12-22T06:42:57;5.77;;;2.20;;
2320;SDS011;15376;48.540;9.268;2023-12-22T06:45:23;5.43;;;2.20;;
2320;SDS011;15376;48.540;9.268;2023-12-22T06:47:48;7.03;;;2.27;;
2320;SDS011;15376;48.540;9.268;2023-12-22T06:50:13;5.33;;;1.90;;
2320;SDS011;15376;48.540;9.268;2023-12-22T06:52:39;2.30;;;1.07;;
2320;SDS011;15376;48.540;9.268;2023-12-22T06:55:04;3.97;;;2.30;;
2320;SDS011;15376;48.540;9.268;2023-12-22T06:57:30;6.87;;;2.40;;
2320;SDS011;15376;48.540;9.268;2023-12-22T06:59:55;7.63;;;2.13;;
2320;SDS011;15376;48.540;9.268;2023-12-22T07:02:21;4.73;;;2.20;;
2320;SDS011;15376;48.540;9.268;2023-12-22T07:07:36;7.90;;;2.93;;
2320;SDS011;15376;48.540;9.268;2023-12-22T07:10:02;4.80;;;2.40;;
2320;SDS011;15376;48.540;9.268;2023-12-22T07:12:27;3.60;;;2.73;;
2320;SDS011;15376;48.540;9.268;2023-12-22T07:14:53;12.30;;;3.03;;
2320;SDS011;15376;48.540;9.268;2023-12-22T07:17:19;6.10;;;3.07;;
2320;SDS011;15376;48.540;9.268;2023-12-22T07:19:44;6.30;;;3.00;;
2320;SDS011;15376;48.540;9.268;2023-12-22T07:22:09;10.97;;;4.90;;
2320;SDS011;15376;48.540;9.268;2023-12-22T07:24:35;5.90;;;3.40;;
2320;SDS011;15376;48.540;9.268;2023-12-22T07:27:00;5.43;;;2.50;;
2320;SDS011;15376;48.540;9.268;2023-12-22T07:29:25;5.37;;;4.10;;
2320;SDS011;15376;48.540;9.268;2023-12-22T07:31:51;7.57;;;4.07;;
2320;SDS011;15376;48.540;9.268;2023-12-22T07:34:16;7.60;;;3.13;;
2320;SDS011;15376;48.540;9.268;2023-12-22T07:36:43;5.67;;;3.47;;
2320;SDS011;15376;48.540;9.268;2023-12-22T07:39:09;6.47;;;3.77;;
2320;SDS011;15376;48.540;9.268;2023-12-22T07:41:35;5.33;;;3.00;;
2320;SDS011;15376;48.540;9.268;2023-12-22T07:44:01;3.07;;;2.60;;
2320;SDS011;15376;48.540;9.268;2023-12-22T07:46:26;10.43;;;3.77;;
2320;SDS011;15376;48.540;9.268;2023-12-22T07:48:53;7.33;;;3.87;;
2320;SDS011;15376;48.540;9.268;2023-12-22T07:51:19;7.87;;;4.50;;
2320;SDS011;15376;48.540;9.268;2023-12-22T07:53:44;16.97;;;3.40;;
2320;SDS011;15376;48.540;9.268;2023-12-22T07:56:10;10.57;;;3.20;;
2320;SDS011;15376;48.540;9.268;2023-12-22T07:58:36;8.20;;;3.20;;
2320;SDS011;15376;48.540;9.268;2023-12-22T08:01:01;7.70;;;3.80;;
2320;SDS011;15376;48.540;9.268;2023-12-22T08:03:28;4.83;;;3.20;;
2320;SDS011;15376;48.540;9.268;2023-12-22T08:05:53;4.70;;;2.60;;
2320;SDS011;15376;48.540;9.268;2023-12-22T08:08:21;6.93;;;2.47;;
2320;SDS011;15376;48.540;9.268;2023-12-22T08:10:46;7.10;;;2.67;;
2320;SDS011;15376;48.540;9.268;2023-12-22T08:13:11;6.40;;;2.70;;
2320;SDS011;15376;48.540;9.268;2023-12-22T08:15:37;6.40;;;3.13;;
2320;SDS011;15376;48.540;9.268;2023-12-22T08:18:02;8.10;;;2.60;;
2320;SDS011;15376;48.540;9.268;2023-12-22T08:20:28;6.83;;;2.50;;
2320;SDS011;15376;48.540;9.268;2023-12-22T08:22:53;10.00;;;3.57;;
2320;SDS011;15376;48.540;9.268;2023-12-22T08:25:19;4.70;;;2.50;;
2320;SDS011;15376;48.540;9.268;2023-12-22T08:27:47;9.20;;;2.77;;
2320;SDS011;15376;48.540;9.268;2023-12-22T08:30:12;3.60;;;2.10;;
2320;SDS011;15376;48.540;9.268;2023-12-22T08:32:39;10.20;;;2.60;;
2320;SDS011;15376;48.540;9.268;2023-12-22T08:35:04;7.77;;;4.70;;
2320;SDS011;15376;48.540;9.268;2023-12-22T08:37:30;7.30;;;2.60;;
2320;SDS011;15376;48.540;9.268;2023-12-22T08:39:56;5.47;;;2.67;;
2320;SDS011;15376;48.540;9.268;2023-12-22T08:42:22;9.30;;;3.27;;
2320;SDS011;15376;48.540;9.268;2023-12-22T08:44:48;7.07;;;3.00;;
2320;SDS011;15376;48.540;9.268;2023-12-22T08:47:13;5.60;;;2.77;;
2320;SDS011;15376;48.540;9.268;2023-12-22T08:49:39;6.50;;;2.93;;
2320;SDS011;15376;48.540;9.268;2023-12-22T08:52:04;7.13;;;3.83;;
2320;SDS011;15376;48.540;9.268;2023-12-22T08:54:30;11.27;;;4.43;;
2320;SDS011;15376;48.540;9.268;2023-12-22T08:56:56;9.27;;;4.20;;
2320;SDS011;15376;48.540;9.268;2023-12-22T08:59:21;10.13;;;4.20;;
2320;SDS011;15376;48.540;9.268;2023-12-22T09:01:46;14.53;;;5.13;;
2320;SDS011;15376;48.540;9.268;2023-12-22T09:04:12;9.83;;;5.33;;
2320;SDS011;15376;48.540;9.268;2023-12-22T09:06:40;12.90;;;5.30;;
2320;SDS011;15376;48.540;9.268;2023-12-22T09:09:05;17.03;;;5.50;;
2320;SDS011;15376;48.540;9.268;2023-12-22T09:11:32;7.50;;;2.53;;
2320;SDS011;15376;48.540;9.268;2023-12-22T09:13:58;10.83;;;3.50;;
2320;SDS011;15376;48.540;9.268;2023-12-22T09:16:23;7.37;;;3.50;;
2320;SDS011;15376;48.540;9.268;2023-12-22T09:18:50;7.60;;;3.20;;
2320;SDS011;15376;48.540;9.268;2023-12-22T09:21:16;6.57;;;2.33;;
2320;SDS011;15376;48.540;9.268;2023-12-22T09:23:43;3.80;;;2.57;;
2320;SDS011;15376;48.540;9.268;2023-12-22T09:26:12;5.57;;;2.77;;
2320;SDS011;15376;48.540;9.268;2023-12-22T09:28:38;6.03;;;2.60;;
2320;SDS011;15376;48.540;9.268;2023-12-22T09:31:04;3.73;;;2.20;;
2320;SDS011;15376;48.540;9.268;2023-12-22T09:33:30;9.90;;;4.17;;
2320;SDS011;15376;48.540;9.268;2023-12-22T09:35:56;7.50;;;3.23;;
2320;SDS011;15376;48.540;9.268;2023-12-22T09:38:21;4.00;;;2.57;;
2320;SDS011;15376;48.540;9.268;2023-12-22T09:40:49;6.60;;;2.40;;
2320;SDS011;15376;48.540;9.268;2023-12-22T09:43:15;10.73;;;2.87;;
2320;SDS011;15376;48.540;9.268;2023-12-22T09:45:40;6.30;;;3.23;;
2320;SDS011;15376;48.540;9.268;2023-12-22T09:48:07;7.10;;;3.67;;
2320;SDS011;15376;48.540;9.268;2023-12-22T09:50:33;6.77;;;3.23;;
2320;SDS011;15376;48.540;9.268;2023-12-22T09:53:00;5.60;;;2.20;;
2320;SDS011;15376;48.540;9.268;2023-12-22T09:55:26;6.40;;;2.50;;
2320;SDS011;15376;48.540;9.268;2023-12-22T09:57:53;9.90;;;3.20;;
2320;SDS011;15376;48.540;9.268;2023-12-22T10:00:20;4.60;;;2.27;;
2320;SDS011;15376;48.540;9.268;2023-12-22T10:02:47;9.13;;;3.30;;
2320;SDS011;15376;48.540;9.268;2023-12-22T10:05:13;8.70;;;3.63;;
2320;SDS011;15376;48.540;9.268;2023-12-22T10:07:39;4.93;;;2.60;;
2320;SDS011;15376;48.540;9.268;2023-12-22T10:10:07;12.07;;;3.50;;
2320;SDS011;15376;48.540;9.268;2023-12-22T10:12:34;9.50;;;2.90;;
2320;SDS011;15376;48.540;9.268;2023-12-22T10:15:03;11.60;;;3.57;;
2320;SDS011;15376;48.540;9.268;2023-12-22T10:17:30;10.50;;;3.10;;
2320;SDS011;15376;48.540;9.268;2023-12-22T10:19:56;6.20;;;2.90;;
2320;SDS011;15376;48.540;9.268;2023-12-22T10:22:21;6.83;;;2.70;;
2320;SDS011;15376;48.540;9.268;2023-12-22T10:24:48;9.43;;;3.20;;
2320;SDS011;15376;48.540;9.268;2023-12-22T10:27:16;8.40;;;2.43;;
2320;SDS011;15376;48.540;9.268;2023-12-22T10:29:53;9.67;;;3.83;;
2320;SDS011;15376;48.540;9.268;2023-12-22T10:32:20;5.33;;;2.80;;
2320;SDS011;15376;48.540;9.268;2023-12-22T10:34:46;5.73;;;2.73;;
2320;SDS011;15376;48.540;9.268;2023-12-22T10:37:12;5.57;;;2.40;;
2320;SDS011;15376;48.540;9.268;2023-12-22T10:39:38;6.67;;;2.53;;
2320;SDS011;15376;48.540;9.268;2023-12-22T10:42:04;7.43;;;3.07;;
2320;SDS011;15376;48.540;9.268;2023-12-22T10:44:30;9.53;;;3.20;;
2320;SDS011;15376;48.540;9.268;2023-12-22T10:46:56;7.07;;;3.00;;
2320;SDS011;15376;48.540;9.268;2023-12-22T10:49:22;7.70;;;3.20;;
2320;SDS011;15376;48.540;9.268;2023-12-22T10:51:48;7.10;;;2.50;;
2320;SDS011;15376;48.540;9.268;2023-12-22T10:54:14;7.40;;;2.57;;
2320;SDS011;15376;48.540;9.268;2023-12-22T10:56:40;8.40;;;4.63;;
2320;SDS011;15376;48.540;9.268;2023-12-22T10:59:06;8.17;;;3.67;;
2320;SDS011;15376;48.540;9.268;2023-12-22T11:01:32;8.30;;;3.63;;
2320;SDS011;15376;48.540;9.268;2023-12-22T11:04:01;6.50;;;3.20;;
2320;SDS011;15376;48.540;9.268;2023-12-22T11:06:29;4.93;;;2.53;;
2320;SDS011;15376;48.540;9.268;2023-12-22T11:08:57;11.20;;;4.60;;
2320;SDS011;15376;48.540;9.268;2023-12-22T11:11:44;4.50;;;2.70;;
2320;SDS011;15376;48.540;9.268;2023-12-22T11:14:10;5.60;;;3.00;;
2320;SDS011;15376;48.540;9.268;2023-12-22T11:16:37;7.37;;;3.13;;
2320;SDS011;15376;48.540;9.268;2023-12-22T11:19:05;5.23;;;2.70;;
2320;SDS011;15376;48.540;9.268;2023-12-22T11:21:33;4.87;;;2.67;;
2320;SDS011;15376;48.540;9.268;2023-12-22T11:24:01;9.13;;;3.83;;
2320;SDS011;15376;48.540;9.268;2023-12-22T11:26:28;8.70;;;3.03;;
2320;SDS011;15376;48.540;9.268;2023-12-22T11:28:54;9.30;;;3.03;;
2320;SDS011;15376;48.540;9.268;2023-12-22T11:31:20;7.73;;;3.40;;
2320;SDS011;15376;48.540;9.268;2023-12-22T11:33:49;8.87;;;3.10;;
2320;SDS011;15376;48.540;9.268;2023-12-22T11:36:16;8.67;;;3.50;;
2320;SDS011;15376;48.540;9.268;2023-12-22T11:38:43;9.07;;;3.67;;
2320;SDS011;15376;48.540;9.268;2023-12-22T11:41:32;7.00;;;3.43;;
2320;SDS011;15376;48.540;9.268;2023-12-22T11:44:00;8.90;;;3.40;;
2320;SDS011;15376;48.540;9.268;2023-12-22T11:46:28;7.60;;;3.20;;
2320;SDS011;15376;48.540;9.268;2023-12-22T11:48:55;5.80;;;2.80;;
2320;SDS011;15376;48.540;9.268;2023-12-22T11:51:20;12.57;;;2.67;;
2320;SDS011;15376;48.540;9.268;2023-12-22T11:53:46;6.50;;;2.40;;
2320;SDS011;15376;48.540;9.268;2023-12-22T11:56:11;6.77;;;2.70;;
2320;SDS011;15376;48.540;9.268;2023-12-22T11:58:41;7.23;;;2.77;;
2320;SDS011;15376;48.540;9.268;2023-12-22T12:01:09;3.10;;;2.47;;
2320;SDS011;15376;48.540;9.268;2023-12-22T12:03:36;6.43;;;3.50;;
2320;SDS011;15376;48.540;9.268;2023-12-22T12:08:54;7.47;;;2.50;;
2320;SDS011;15376;48.540;9.268;2023-12-22T12:11:20;9.70;;;2.63;;
2320;SDS011;15376;48.540;9.268;2023-12-22T12:13:46;6.23;;;2.20;;
2320;SDS011;15376;48.540;9.268;2023-12-22T12:16:13;7.77;;;3.20;;
2320;SDS011;15376;48.540;9.268;2023-12-22T12:18:39;3.67;;;2.30;;
2320;SDS011;15376;48.540;9.268;2023-12-22T12:21:06;4.53;;;2.67;;
2320;SDS011;15376;48.540;9.268;2023-12-22T12:23:33;4.77;;;2.27;;
2320;SDS011;15376;48.540;9.268;2023-12-22T12:25:58;3.83;;;2.00;;
2320;SDS011;15376;48.540;9.268;2023-12-22T12:28:31;4.43;;;1.90;;
2320;SDS011;15376;48.540;9.268;2023-12-22T12:31:01;3.67;;;1.70;;
2320;SDS011;15376;48.540;9.268;2023-12-22T12:33:33;4.80;;;2.37;;
2320;SDS011;15376;48.540;9.268;2023-12-22T12:36:00;4.30;;;2.67;;
2320;SDS011;15376;48.540;9.268;2023-12-22T12:41:30;7.90;;;3.10;;
2320;SDS011;15376;48.540;9.268;2023-12-22T12:43:56;5.60;;;2.30;;
2320;SDS011;15376;48.540;9.268;2023-12-22T12:46:23;3.07;;;2.00;;
2320;SDS011;15376;48.540;9.268;2023-12-22T12:49:01;5.10;;;2.60;;
2320;SDS011;15376;48.540;9.268;2023-12-22T12:51:29;9.77;;;2.20;;
2320;SDS011;15376;48.540;9.268;2023-12-22T12:53:55;5.60;;;2.50;;
2320;SDS011;15376;48.540;9.268;2023-12-22T12:56:21;10.47;;;2.20;;
2320;SDS011;15376;48.540;9.268;2023-12-22T12:58:46;3.63;;;1.90;;
2320;SDS011;15376;48.540;9.268;2023-12-22T13:01:12;8.13;;;1.93;;
2320;SDS011;15376;48.540;9.268;2023-12-22T13:03:53;7.77;;;2.33;;
2320;SDS011;15376;48.540;9.268;2023-12-22T13:06:19;1.53;;;1.43;;
2320;SDS011;15376;48.540;9.268;2023-12-22T13:08:48;2.40;;;1.80;;
2320;SDS011;15376;48.540;9.268;2023-12-22T13:11:15;3.30;;;1.27;;
2320;SDS011;15376;48.540;9.268;2023-12-22T13:13:45;1.70;;;1.60;;
2320;SDS011;15376;48.540;9.268;2023-12-22T13:16:10;2.50;;;1.80;;
2320;SDS011;15376;48.540;9.268;2023-12-22T13:18:36;4.57;;;1.97;;
2320;SDS011;15376;48.540;9.268;2023-12-22T13:21:02;3.33;;;1.23;;
2320;SDS011;15376;48.540;9.268;2023-12-22T13:23:28;2.23;;;1.63;;
2320;SDS011;15376;48.540;9.268;2023-12-22T13:25:53;1.43;;;1.33;;
2320;SDS011;15376;48.540;9.268;2023-12-22T13:28:25;1.10;;;1.00;;
2320;SDS011;15376;48.540;9.268;2023-12-22T13:30:52;2.70;;;1.13;;
2320;SDS011;15376;48.540;9.268;2023-12-22T13:33:17;1.97;;;1.30;;
2320;SDS011;15376;48.540;9.268;2023-12-22T13:35:43;2.53;;;1.20;;
2320;SDS011;15376;48.540;9.268;2023-12-22T13:38:08;4.90;;;1.10;;
2320;SDS011;15376;48.540;9.268;2023-12-22T13:40:34;2.03;;;1.10;;
2320;SDS011;15376;48.540;9.268;2023-12-22T13:43:00;1.70;;;1.60;;
2320;SDS011;15376;48.540;9.268;2023-12-22T13:45:29;1.60;;;1.30;;
2320;SDS011;15376;48.540;9.268;2023-12-22T13:47:56;1.97;;;1.20;;
2320;SDS011;15376;48.540;9.268;2023-12-22T13:50:22;1.33;;;1.23;;
2320;SDS011;15376;48.540;9.268;2023-12-22T13:52:48;1.10;;;1.00;;
2320;SDS011;15376;48.540;9.268;2023-12-22T13:55:15;1.43;;;1.10;;
2320;SDS011;15376;48.540;9.268;2023-12-22T13:57:42;1.83;;;1.57;;
2320;SDS011;15376;48.540;9.268;2023-12-22T14:02:43;1.53;;;1.00;;
2320;SDS011;15376;48.540;9.268;2023-12-22T14:05:09;1.60;;;1.50;;
2320;SDS011;15376;48.540;9.268;2023-12-22T14:07:35;1.73;;;1.30;;
2320;SDS011;15376;48.540;9.268;2023-12-22T14:10:07;2.37;;;1.20;;
2320;SDS011;15376;48.540;9.268;2023-12-22T14:12:32;1.10;;;1.00;;
2320;SDS011;15376;48.540;9.268;2023-12-22T14:14:58;1.73;;;1.40;;
2320;SDS011;15376;48.540;9.268;2023-12-22T14:17:24;1.47;;;1.10;;
2320;SDS011;15376;48.540;9.268;2023-12-22T14:19:49;1.40;;;1.30;;
2320;SDS011;15376;48.540;9.268;2023-12-22T14:22:15;2.10;;;1.63;;
2320;SDS011;15376;48.540;9.268;2023-12-22T14:24:40;1.23;;;1.10;;
2320;SDS011;15376;48.540;9.268;2023-12-22T14:27:06;1.47;;;0.90;;
2320;SDS011;15376;48.540;9.268;2023-12-22T14:29:31;1.27;;;1.17;;
2320;SDS011;15376;48.540;9.268;2023-12-22T14:31:58;2.53;;;1.97;;
2320;SDS011;15376;48.540;9.268;2023-12-22T14:34:23;1.30;;;1.10;;
2320;SDS011;15376;48.540;9.268;2023-12-22T14:36:49;2.20;;;1.30;;
2320;SDS011;15376;48.540;9.268;2023-12-22T14:39:14;1.13;;;1.00;;
2320;SDS011;15376;48.540;9.268;2023-12-22T14:41:40;1.17;;;1.07;;
2320;SDS011;15376;48.540;9.268;2023-12-22T14:44:08;1.43;;;1.00;;
2320;SDS011;15376;48.540;9.268;2023-12-22T14:46:37;1.00;;;0.80;;
2320;SDS011;15376;48.540;9.268;2023-12-22T14:49:06;1.03;;;0.93;;
2320;SDS011;15376;48.540;9.268;2023-12-22T14:51:35;1.60;;;1.27;;
2320;SDS011;15376;48.540;9.268;2023-12-22T14:54:02;1.63;;;1.00;;
2320;SDS011;15376;48.540;9.268;2023-12-22T14:56:30;1.13;;;0.87;;
2320;SDS011;15376;48.540;9.268;2023-12-22T14:58:56;1.47;;;1.00;;
2320;SDS011;15376;48.540;9.268;2023-12-22T15:01:21;0.80;;;0.80;;
2320;SDS011;15376;48.540;9.268;2023-12-22T15:03:47;1.07;;;0.97;;
2320;SDS011;15376;48.540;9.268;2023-12-22T15:06:12;0.80;;;0.80;;
2320;SDS011;15376;48.540;9.268;2023-12-22T15:08:38;1.57;;;1.40;;